createdAt,value
2023-03-31T00:00:21.314Z,100.00
2023-03-31T00:02:49.342Z,100.00
2023-03-31T00:05:18.383Z,100.00
2023-03-31T00:07:46.329Z,100.00
2023-03-31T00:10:18.317Z,100.00
2023-03-31T00:12:46.214Z,100.00
2023-03-31T00:15:13.772Z,100.00
2023-03-31T00:17:40.734Z,100.00
2023-03-31T00:20:12.706Z,100.00
2023-03-31T00:22:42.607Z,100.00
2023-03-31T00:25:13.755Z,100.00
2023-03-31T00:27:44.488Z,100.00
2023-03-31T00:30:14.011Z,100.00
2023-03-31T00:32:41.067Z,100.00
2023-03-31T00:35:09.139Z,100.00
2023-03-31T00:37:36.330Z,100.00
2023-03-31T00:40:10.084Z,100.00
2023-03-31T00:42:44.121Z,100.00
2023-03-31T00:45:14.184Z,100.00
2023-03-31T00:47:55.403Z,100.00
2023-03-31T00:50:29.458Z,100.00
2023-03-31T00:53:01.512Z,100.00
2023-03-31T00:55:34.949Z,100.00
2023-03-31T00:58:04.879Z,100.00
2023-03-31T01:00:32.090Z,100.00
2023-03-31T01:03:07.104Z,100.00
2023-03-31T01:05:48.109Z,100.00
2023-03-31T01:08:16.581Z,100.00
2023-03-31T01:10:51.499Z,100.00
2023-03-31T01:13:20.250Z,100.00
2023-03-31T01:15:47.465Z,100.00
2023-03-31T01:18:16.627Z,100.00
2023-03-31T01:20:55.988Z,100.00
2023-03-31T01:23:51.191Z,100.00
2023-03-31T01:27:01.453Z,100.00
2023-03-31T01:29:28.374Z,98.58
2023-03-31T01:32:20.171Z,95.24
2023-03-31T01:34:56.294Z,95.49
2023-03-31T01:38:01.331Z,96.91
2023-03-31T01:40:59.269Z,100.00
2023-03-31T01:44:08.452Z,100.00
2023-03-31T01:46:53.946Z,100.00
2023-03-31T01:49:26.943Z,100.00
2023-03-31T01:52:12.898Z,100.00
2023-03-31T01:55:10.892Z,100.00
2023-03-31T01:57:42.936Z,100.00
2023-03-31T02:00:26.318Z,100.00
2023-03-31T02:03:06.340Z,100.00
2023-03-31T02:05:38.599Z,100.00
2023-03-31T02:08:45.974Z,100.00
2023-03-31T02:11:14.183Z,100.00
2023-03-31T02:13:44.869Z,100.00
2023-03-31T02:16:19.244Z,100.00
2023-03-31T02:18:50.304Z,100.00
2023-03-31T02:21:18.025Z,100.00
2023-03-31T02:23:46.101Z,98.93
2023-03-31T02:26:30.171Z,100.00
2023-03-31T02:28:58.136Z,100.00
2023-03-31T02:31:42.265Z,100.00
2023-03-31T02:34:09.451Z,100.00
2023-03-31T02:36:37.072Z,100.00
2023-03-31T02:39:10.100Z,100.00
2023-03-31T02:41:37.631Z,100.00
2023-03-31T02:44:04.849Z,100.00
2023-03-31T02:46:32.675Z,100.00
2023-03-31T02:49:03.109Z,100.00
2023-03-31T02:51:38.065Z,100.00
2023-03-31T02:54:23.313Z,100.00
2023-03-31T02:57:07.412Z,100.00
2023-03-31T02:59:37.277Z,100.00
2023-03-31T03:02:22.896Z,100.00
2023-03-31T03:05:06.700Z,100.00
2023-03-31T03:08:11.827Z,100.00
2023-03-31T03:10:53.826Z,100.00
2023-03-31T03:13:33.673Z,100.00
2023-03-31T03:16:03.396Z,100.00
2023-03-31T03:18:30.501Z,100.00
2023-03-31T03:20:57.550Z,100.00
2023-03-31T03:23:25.861Z,100.00
2023-03-31T03:25:52.843Z,99.21
2023-03-31T03:28:20.284Z,98.45
2023-03-31T03:30:47.530Z,98.35
2023-03-31T03:33:17.245Z,100.00
2023-03-31T03:35:44.311Z,100.00
2023-03-31T03:38:11.351Z,93.68
2023-03-31T03:40:38.434Z,94.51
2023-03-31T03:43:05.514Z,100.00
2023-03-31T03:45:32.470Z,100.00
2023-03-31T03:47:59.486Z,100.00
2023-03-31T03:50:26.488Z,100.00
2023-03-31T03:52:53.468Z,100.00
2023-03-31T03:55:20.395Z,100.00
2023-03-31T03:57:47.314Z,100.00
2023-03-31T04:00:14.416Z,100.00
2023-03-31T04:02:41.537Z,100.00
2023-03-31T04:05:09.170Z,100.00
2023-03-31T04:07:36.109Z,100.00
2023-03-31T04:10:03.036Z,100.00
2023-03-31T04:12:30.172Z,100.00
2023-03-31T04:14:57.087Z,100.00
2023-03-31T04:17:33.381Z,100.00
2023-03-31T04:20:06.307Z,100.00
2023-03-31T04:22:40.913Z,100.00
2023-03-31T04:25:20.049Z,100.00
2023-03-31T04:27:55.158Z,100.00
2023-03-31T04:30:24.120Z,100.00
2023-03-31T04:32:53.692Z,100.00
2023-03-31T04:35:22.438Z,100.00
2023-03-31T04:37:59.335Z,100.00
2023-03-31T04:40:26.937Z,100.00
2023-03-31T04:42:53.899Z,100.00
2023-03-31T04:45:20.952Z,100.00
2023-03-31T04:47:48.202Z,100.00
2023-03-31T04:50:17.197Z,100.00
2023-03-31T04:52:45.650Z,100.00
2023-03-31T04:55:12.720Z,100.00
2023-03-31T04:57:39.825Z,100.00
2023-03-31T05:00:08.194Z,98.96
2023-03-31T05:02:35.718Z,93.80
2023-03-31T05:05:02.748Z,90.21
2023-03-31T05:07:29.720Z,84.77
2023-03-31T05:09:56.714Z,83.75
2023-03-31T05:12:23.874Z,80.91
2023-03-31T05:14:51.155Z,72.72
2023-03-31T05:17:18.126Z,67.91
2023-03-31T05:19:45.245Z,63.05
2023-03-31T05:22:12.417Z,63.40
2023-03-31T05:24:39.573Z,63.65
2023-03-31T05:27:06.805Z,63.55
2023-03-31T05:29:33.874Z,66.08
2023-03-31T05:32:01.985Z,66.52
2023-03-31T05:34:29.508Z,68.73
2023-03-31T05:36:56.541Z,70.15
2023-03-31T05:39:23.682Z,68.27
2023-03-31T05:41:50.889Z,64.46
2023-03-31T05:44:17.893Z,63.80
2023-03-31T05:46:45.014Z,59.77
2023-03-31T05:49:12.224Z,58.19
2023-03-31T05:51:53.473Z,58.29
2023-03-31T05:54:20.604Z,55.33
2023-03-31T05:56:47.762Z,54.49
2023-03-31T05:59:15.321Z,50.99
2023-03-31T06:01:50.215Z,47.50
2023-03-31T06:04:19.016Z,45.53
2023-03-31T06:06:46.515Z,47.59
2023-03-31T06:09:19.024Z,42.56
2023-03-31T06:12:38.829Z,39.80
2023-03-31T06:15:08.820Z,40.94
2023-03-31T06:17:38.406Z,37.48
2023-03-31T06:20:19.687Z,36.25
2023-03-31T06:22:54.080Z,35.37
2023-03-31T06:25:55.396Z,34.41
2023-03-31T06:37:17.362Z,39.95
2023-03-31T06:40:25.094Z,39.83
2023-03-31T07:01:15.698Z,36.73
2023-03-31T07:03:42.852Z,37.41
2023-03-31T07:06:10.102Z,36.76
2023-03-31T07:08:37.330Z,38.44
2023-03-31T07:11:04.872Z,38.86
2023-03-31T07:13:33.376Z,42.26
2023-03-31T07:16:00.609Z,38.20
2023-03-31T07:18:34.965Z,36.94
2023-03-31T07:21:09.085Z,38.90
2023-03-31T07:23:37.739Z,37.76
2023-03-31T07:26:04.888Z,37.06
2023-03-31T07:28:33.110Z,37.38
2023-03-31T07:31:00.421Z,37.27
2023-03-31T07:33:27.470Z,35.74
2023-03-31T07:36:10.632Z,35.89
2023-03-31T07:38:39.759Z,35.28
2023-03-31T07:41:10.356Z,36.91
2023-03-31T07:43:39.529Z,36.02
2023-03-31T07:46:08.817Z,34.63
2023-03-31T07:48:36.226Z,35.36
2023-03-31T07:51:03.899Z,34.49
2023-03-31T07:53:31.370Z,35.29
2023-03-31T07:55:58.677Z,37.58
2023-03-31T07:58:25.918Z,37.53
2023-03-31T08:00:53.130Z,38.63
2023-03-31T08:03:20.224Z,44.11
2023-03-31T08:05:52.726Z,50.43
2023-03-31T08:08:21.341Z,53.68
2023-03-31T08:10:49.192Z,55.63
2023-03-31T08:13:16.310Z,55.23
2023-03-31T08:15:43.367Z,51.04
2023-03-31T08:18:10.707Z,50.59
2023-03-31T08:20:39.708Z,47.47
2023-03-31T08:23:13.608Z,47.37
2023-03-31T08:25:47.750Z,45.30
2023-03-31T08:28:14.902Z,43.98
2023-03-31T08:30:42.412Z,43.90
2023-03-31T08:33:09.797Z,41.71
2023-03-31T08:35:39.319Z,42.10
2023-03-31T08:38:06.181Z,41.41
2023-03-31T08:40:33.802Z,40.72
2023-03-31T08:43:10.671Z,39.91
2023-03-31T08:45:43.960Z,39.88
2023-03-31T08:48:35.034Z,39.05
2023-03-31T08:51:12.814Z,38.15
2023-03-31T08:53:46.045Z,38.66
2023-03-31T08:56:23.002Z,38.35
2023-03-31T08:58:51.920Z,39.57
2023-03-31T09:01:56.296Z,39.97
2023-03-31T09:04:43.476Z,38.08
2023-03-31T09:07:29.371Z,37.13
2023-03-31T09:10:28.689Z,38.10
2023-03-31T09:13:02.792Z,36.43
2023-03-31T09:15:35.552Z,37.29
2023-03-31T09:18:34.805Z,36.89
2023-03-31T09:21:32.552Z,38.25
2023-03-31T09:24:20.597Z,38.78
2023-03-31T09:27:00.215Z,36.63
2023-03-31T09:29:51.681Z,37.75
2023-03-31T09:32:21.816Z,37.41
2023-03-31T09:35:00.795Z,36.17
2023-03-31T09:37:33.192Z,36.17
2023-03-31T09:40:08.480Z,36.23
2023-03-31T09:42:37.006Z,35.70
2023-03-31T09:45:06.097Z,35.80
2023-03-31T09:47:44.777Z,35.54
2023-03-31T09:50:25.340Z,35.96
2023-03-31T09:53:01.094Z,34.33
2023-03-31T09:55:53.006Z,34.69
2023-03-31T09:59:00.615Z,34.70
2023-03-31T10:01:29.711Z,33.90
2023-03-31T10:04:00.260Z,34.00
2023-03-31T10:07:17.594Z,34.17
2023-03-31T10:09:43.086Z,33.92
2023-03-31T10:12:17.916Z,33.78
2023-03-31T10:14:48.069Z,33.66
2023-03-31T10:17:21.260Z,33.80
2023-03-31T10:19:51.885Z,34.35
2023-03-31T10:22:23.885Z,34.22
2023-03-31T10:24:54.075Z,34.17
2023-03-31T10:27:32.366Z,33.25
2023-03-31T10:30:02.255Z,34.08
2023-03-31T10:32:31.938Z,32.79
2023-03-31T10:35:14.882Z,32.24
2023-03-31T10:37:44.033Z,32.93
2023-03-31T10:40:34.952Z,32.69
2023-03-31T10:43:11.279Z,32.68
2023-03-31T10:45:45.019Z,32.60
2023-03-31T10:48:28.043Z,32.53
2023-03-31T10:51:15.712Z,33.70
2023-03-31T10:53:45.589Z,33.90
2023-03-31T10:56:20.549Z,32.67
2023-03-31T10:59:06.051Z,33.14
2023-03-31T11:02:06.179Z,31.97
2023-03-31T11:04:45.078Z,31.46
2023-03-31T11:07:39.193Z,32.03
2023-03-31T11:10:39.641Z,32.13
2023-03-31T11:13:42.481Z,33.43
2023-03-31T11:16:31.014Z,32.73
2023-03-31T11:19:48.399Z,32.28
2023-03-31T11:22:52.962Z,33.25
2023-03-31T11:25:38.919Z,32.71
2023-03-31T11:28:23.557Z,32.78
2023-03-31T11:30:56.692Z,34.92
2023-03-31T11:33:46.899Z,33.67
2023-03-31T11:36:20.598Z,34.70
2023-03-31T11:39:15.314Z,35.68
2023-03-31T11:41:59.998Z,35.65
2023-03-31T11:44:36.908Z,35.53
2023-03-31T11:47:11.158Z,36.25
2023-03-31T11:50:12.095Z,35.61
2023-03-31T11:52:43.899Z,35.56
2023-03-31T11:55:32.771Z,35.65
2023-03-31T11:58:06.128Z,35.83
2023-03-31T12:01:05.047Z,36.29
2023-03-31T12:03:37.837Z,36.75
2023-03-31T12:06:20.549Z,35.89
2023-03-31T12:09:26.270Z,36.27
2023-03-31T12:12:25.063Z,36.19
2023-03-31T12:15:08.383Z,35.97
2023-03-31T12:17:46.643Z,36.99
2023-03-31T12:20:44.033Z,37.65
2023-03-31T12:23:29.138Z,37.79
2023-03-31T12:26:48.910Z,37.60
2023-03-31T12:29:55.609Z,38.38
2023-03-31T12:32:28.272Z,38.13
2023-03-31T12:35:25.679Z,38.63
2023-03-31T12:37:55.953Z,39.32
2023-03-31T12:40:59.529Z,38.69
2023-03-31T12:44:05.146Z,38.34
2023-03-31T12:47:14.675Z,38.55
2023-03-31T12:49:52.570Z,38.95
2023-03-31T12:52:43.222Z,39.43
2023-03-31T12:55:35.534Z,39.69
2023-03-31T12:58:31.893Z,39.91
2023-03-31T13:01:16.607Z,41.71
2023-03-31T13:04:19.056Z,40.31
2023-03-31T13:06:55.822Z,42.00
2023-03-31T13:09:45.326Z,42.30
2023-03-31T13:12:30.388Z,43.62
2023-03-31T13:15:32.856Z,43.12
2023-03-31T13:18:12.450Z,43.89
2023-03-31T13:20:43.174Z,44.54
2023-03-31T13:23:27.120Z,45.02
2023-03-31T13:25:56.234Z,45.63
2023-03-31T13:28:30.703Z,45.67
2023-03-31T13:31:09.344Z,46.01
2023-03-31T13:33:46.262Z,47.01
2023-03-31T13:36:45.702Z,47.18
2023-03-31T13:42:16.493Z,46.89
2023-03-31T13:44:57.903Z,47.98
2023-03-31T13:47:56.756Z,48.26
2023-03-31T13:51:16.094Z,48.65
2023-03-31T13:54:36.691Z,47.86
2023-03-31T13:57:43.081Z,46.84
2023-03-31T14:00:17.326Z,47.06
2023-03-31T14:02:53.816Z,46.34
2023-03-31T14:05:34.343Z,46.88
2023-03-31T14:08:15.070Z,46.70
2023-03-31T14:10:43.342Z,47.40
2023-03-31T14:13:19.671Z,47.49
2023-03-31T14:15:51.950Z,47.47
2023-03-31T14:18:30.872Z,46.56
2023-03-31T14:21:28.990Z,47.30
2023-03-31T14:24:22.389Z,47.06
2023-03-31T14:29:47.308Z,46.71
2023-03-31T14:32:26.690Z,47.85
2023-03-31T14:34:58.813Z,48.21
2023-03-31T14:37:28.365Z,49.15
2023-03-31T14:39:57.684Z,48.29
2023-03-31T14:42:30.125Z,49.22
2023-03-31T14:45:25.234Z,48.93
2023-03-31T14:47:56.333Z,50.78
2023-03-31T14:50:29.971Z,49.73
2023-03-31T14:52:57.358Z,50.06
2023-03-31T14:55:35.630Z,49.13
2023-03-31T14:58:18.639Z,49.91
2023-03-31T15:00:45.830Z,50.29
2023-03-31T15:03:15.782Z,50.35
2023-03-31T15:05:44.660Z,50.19
2023-03-31T15:08:15.974Z,49.95
2023-03-31T15:10:54.060Z,49.68
2023-03-31T15:13:39.703Z,49.48
2023-03-31T15:16:35.234Z,49.95
2023-03-31T15:19:12.615Z,49.72
2023-03-31T15:21:39.599Z,50.38
2023-03-31T15:24:08.139Z,51.31
2023-03-31T15:26:41.671Z,51.28
2023-03-31T15:29:20.820Z,51.56
2023-03-31T15:31:48.638Z,52.08
2023-03-31T15:34:27.417Z,51.91
2023-03-31T15:36:57.103Z,52.07
2023-03-31T15:39:25.094Z,52.30
2023-03-31T15:41:53.030Z,52.03
2023-03-31T15:44:44.043Z,51.65
2023-03-31T15:47:17.844Z,51.39
2023-03-31T15:49:50.867Z,51.11
2023-03-31T15:52:23.358Z,50.51
2023-03-31T15:54:50.550Z,50.75
2023-03-31T15:57:20.018Z,52.12
2023-03-31T15:59:56.684Z,52.64
2023-03-31T16:02:27.317Z,51.67
2023-03-31T16:04:58.748Z,51.26
2023-03-31T16:07:30.312Z,51.78
2023-03-31T16:10:33.698Z,51.68
2023-03-31T16:13:06.721Z,51.44
2023-03-31T16:15:38.709Z,51.28
2023-03-31T16:18:31.491Z,51.87
2023-03-31T16:21:02.446Z,51.80
2023-03-31T16:23:32.687Z,51.58
2023-03-31T16:26:01.346Z,51.54
2023-03-31T16:28:32.658Z,51.53
2023-03-31T16:31:02.168Z,51.65
2023-03-31T16:33:31.580Z,51.66
2023-03-31T16:35:59.491Z,51.77
2023-03-31T16:38:30.465Z,51.30
2023-03-31T16:40:59.405Z,52.88
2023-03-31T16:43:29.328Z,52.64
2023-03-31T16:45:58.829Z,52.09
2023-03-31T16:48:28.641Z,51.84
2023-03-31T16:50:57.957Z,50.87
2023-03-31T16:53:30.049Z,51.92
2023-03-31T16:55:57.576Z,51.58
2023-03-31T16:58:26.456Z,51.76
2023-03-31T17:00:54.109Z,53.12
2023-03-31T17:03:22.162Z,52.14
2023-03-31T17:05:53.122Z,51.66
2023-03-31T17:08:22.028Z,51.51
2023-03-31T17:11:04.664Z,52.53
2023-03-31T17:13:32.776Z,52.54
2023-03-31T17:16:13.540Z,53.31
2023-03-31T17:18:46.248Z,52.76
2023-03-31T17:21:15.171Z,53.13
2023-03-31T17:23:44.826Z,53.39
2023-03-31T17:26:14.600Z,53.62
2023-03-31T17:28:41.882Z,53.64
2023-03-31T17:31:17.761Z,52.64
2023-03-31T17:33:45.189Z,53.63
2023-03-31T17:36:12.549Z,53.45
2023-03-31T17:38:40.141Z,53.01
2023-03-31T17:41:09.547Z,53.14
2023-03-31T17:43:38.426Z,52.62
2023-03-31T17:46:09.911Z,53.80
2023-03-31T17:48:38.883Z,57.02
2023-03-31T17:51:13.902Z,57.40
2023-03-31T17:53:42.620Z,56.62
2023-03-31T17:56:09.832Z,57.62
2023-03-31T17:58:37.023Z,61.19
2023-03-31T18:01:06.129Z,59.84
2023-03-31T18:03:33.593Z,57.99
2023-03-31T18:06:08.533Z,58.58
2023-03-31T18:08:36.379Z,60.28
2023-03-31T18:11:05.438Z,63.58
2023-03-31T18:13:33.841Z,63.01
2023-03-31T18:16:00.838Z,64.10
2023-03-31T18:18:31.270Z,63.21
2023-03-31T18:20:58.241Z,63.90
2023-03-31T18:23:25.218Z,66.22
2023-03-31T18:25:53.014Z,72.54
2023-03-31T18:28:21.102Z,75.02
2023-03-31T18:30:48.311Z,89.18
2023-03-31T18:33:15.592Z,92.86
2023-03-31T18:35:43.099Z,95.56
2023-03-31T18:38:10.268Z,96.08
2023-03-31T18:40:37.953Z,98.82
2023-03-31T18:43:06.168Z,100.00
2023-03-31T18:45:33.237Z,100.00
2023-03-31T18:48:00.548Z,100.00
2023-03-31T18:50:27.537Z,100.00
2023-03-31T18:52:54.898Z,100.00
2023-03-31T18:55:22.441Z,100.00
2023-03-31T18:57:49.731Z,100.00
2023-03-31T19:00:17.451Z,100.00
2023-03-31T19:02:44.793Z,100.00
2023-03-31T19:05:12.553Z,100.00
2023-03-31T19:07:40.911Z,100.00
2023-03-31T19:10:08.545Z,100.00
2023-03-31T19:12:35.444Z,100.00
2023-03-31T19:15:02.564Z,100.00
2023-03-31T19:17:29.701Z,100.00
2023-03-31T19:19:56.999Z,99.37
2023-03-31T19:22:25.481Z,98.78
2023-03-31T19:24:52.593Z,97.72
2023-03-31T19:27:19.553Z,97.01
2023-03-31T19:29:46.678Z,96.92
2023-03-31T19:32:13.678Z,92.45
2023-03-31T19:34:40.708Z,92.89
2023-03-31T19:37:07.782Z,94.19
2023-03-31T19:39:34.821Z,92.47
2023-03-31T19:42:02.894Z,92.44
2023-03-31T19:44:29.870Z,92.41
2023-03-31T19:46:58.824Z,89.35
2023-03-31T19:49:26.059Z,88.05
2023-03-31T19:51:53.134Z,86.15
2023-03-31T19:54:20.122Z,83.34
2023-03-31T19:56:47.679Z,82.74
2023-03-31T19:59:14.777Z,82.34
2023-03-31T20:01:41.820Z,84.89
2023-03-31T20:04:09.014Z,89.70
2023-03-31T20:06:37.342Z,88.80
2023-03-31T20:09:25.674Z,88.14
2023-03-31T20:12:12.718Z,86.70
2023-03-31T20:14:39.850Z,84.81
2023-03-31T20:17:07.734Z,87.31
2023-03-31T20:19:35.281Z,86.50
2023-03-31T20:22:02.661Z,88.79
2023-03-31T20:24:30.046Z,88.80
2023-03-31T20:27:14.365Z,87.20
2023-03-31T20:29:43.993Z,85.06
2023-03-31T20:32:10.868Z,84.66
2023-03-31T20:34:38.183Z,84.07
2023-03-31T20:37:05.105Z,83.77
2023-03-31T20:39:32.360Z,82.92
2023-03-31T20:41:59.306Z,84.75
2023-03-31T20:44:26.733Z,84.61
2023-03-31T20:46:55.120Z,83.58
2023-03-31T20:49:22.059Z,81.59
2023-03-31T20:51:49.266Z,81.82
2023-03-31T20:54:16.333Z,86.86
2023-03-31T20:56:43.466Z,87.37
2023-03-31T20:59:13.172Z,89.27
2023-03-31T21:01:42.775Z,100.00
2023-03-31T21:04:11.304Z,100.00
2023-03-31T21:06:43.917Z,100.00
2023-03-31T21:09:12.466Z,100.00
2023-03-31T21:11:40.922Z,100.00
2023-03-31T21:14:11.481Z,100.00
2023-03-31T21:16:38.455Z,100.00
2023-03-31T21:19:05.425Z,100.00
2023-03-31T21:21:32.366Z,99.36
2023-03-31T21:23:59.354Z,98.45
2023-03-31T21:26:26.555Z,100.00
2023-03-31T21:28:54.629Z,100.00
2023-03-31T21:31:24.535Z,100.00
2023-03-31T21:33:53.698Z,100.00
2023-03-31T21:36:24.225Z,100.00
2023-03-31T21:38:57.623Z,100.00
2023-03-31T21:41:28.516Z,100.00
2023-03-31T21:43:56.666Z,100.00
2023-03-31T21:46:27.248Z,100.00
2023-03-31T21:48:54.997Z,100.00
2023-03-31T21:51:22.772Z,100.00
2023-03-31T21:53:53.432Z,100.00
2023-03-31T21:56:39.485Z,98.15
2023-03-31T21:59:06.550Z,99.80
2023-03-31T22:01:34.014Z,99.53
2023-03-31T22:04:01.420Z,100.00
2023-03-31T22:06:28.508Z,100.00
2023-03-31T22:08:55.798Z,100.00
2023-03-31T22:11:23.851Z,100.00
2023-03-31T22:13:50.953Z,99.18
2023-03-31T22:16:21.880Z,97.80
2023-03-31T22:18:50.480Z,95.88
2023-03-31T22:21:27.916Z,97.02
2023-03-31T22:23:57.905Z,94.59
2023-03-31T22:26:26.330Z,92.77
2023-03-31T22:28:53.516Z,94.64
2023-03-31T22:31:20.897Z,96.19
2023-03-31T22:33:48.143Z,95.47
2023-03-31T22:36:15.081Z,94.37
2023-03-31T22:38:42.163Z,96.24
2023-03-31T22:41:09.191Z,100.00
2023-03-31T22:43:36.260Z,98.29
2023-03-31T22:46:08.023Z,96.29
2023-03-31T22:48:35.948Z,96.53
2023-03-31T22:51:06.071Z,96.44
2023-03-31T22:53:33.760Z,95.19
2023-03-31T22:56:09.259Z,95.18
2023-03-31T22:58:36.619Z,94.06
2023-03-31T23:01:05.807Z,91.21
2023-03-31T23:03:33.337Z,90.67
2023-03-31T23:06:05.311Z,90.89
2023-03-31T23:08:33.942Z,92.36
2023-03-31T23:11:01.020Z,90.77
2023-03-31T23:13:29.082Z,91.24
2023-03-31T23:15:56.352Z,96.69
2023-03-31T23:18:23.709Z,95.92
2023-03-31T23:20:50.771Z,95.79
2023-03-31T23:23:17.749Z,96.35
2023-03-31T23:25:44.642Z,96.26
2023-03-31T23:28:11.498Z,96.94
2023-03-31T23:30:38.441Z,97.16
2023-03-31T23:33:05.370Z,97.32
2023-03-31T23:35:32.616Z,96.04
2023-03-31T23:37:59.641Z,94.13
2023-03-31T23:40:26.799Z,93.80
2023-03-31T23:42:53.678Z,92.96
2023-03-31T23:45:20.657Z,91.68
2023-03-31T23:47:47.652Z,92.40
2023-03-31T23:50:14.726Z,91.50
2023-03-31T23:52:41.718Z,91.07
2023-03-31T23:55:08.993Z,90.23
2023-03-31T23:57:36.223Z,92.05
